Time;durP1;ratioP1;P1;durP2;ratioP2;P2;SDS_P1;SDS_P2;PMS_P1;PMS_P2;Temp;Humidity;BMP_temperature;BMP_pressure;BME280_temperature;BME280_humidity;BME280_pressure;Samples;Min_cycle;Max_cycle;Signal;HPM_P1;HPM_P2
2023/05/22 00:01:28;;;;;;;8.32;2.25;;;12.10;99.90;;;;;;5074723;28;20040;-79
2023/05/22 00:03:55;;;;;;;8.57;2.75;;;12.00;99.90;;;;;;5073935;28;20524;-79
2023/05/22 00:06:23;;;;;;;5.30;2.10;;;12.00;99.90;;;;;;5074612;28;20068;-79
2023/05/22 00:08:50;;;;;;;6.72;2.25;;;12.00;99.90;;;;;;5074071;28;20056;-79
2023/05/22 00:11:16;;;;;;;6.28;2.33;;;12.00;99.90;;;;;;5074390;28;20132;-79
2023/05/22 00:13:43;;;;;;;11.82;2.80;;;11.90;99.90;;;;;;5074697;28;20036;-80
2023/05/22 00:16:10;;;;;;;12.90;2.35;;;11.90;99.90;;;;;;5056518;28;20036;-81
2023/05/22 00:18:37;;;;;;;10.45;2.80;;;11.80;99.90;;;;;;5075473;28;20445;-82
2023/05/22 00:21:03;;;;;;;7.18;2.60;;;11.80;99.90;;;;;;5074490;28;20052;-80
2023/05/22 00:23:30;;;;;;;8.80;2.45;;;11.80;99.90;;;;;;5073457;28;20110;-81
2023/05/22 00:25:57;;;;;;;10.40;2.33;;;11.70;99.90;;;;;;5073940;28;20481;-79
2023/05/22 00:28:23;;;;;;;9.45;2.58;;;11.70;99.90;;;;;;5071720;28;20080;-79
2023/05/22 00:30:51;;;;;;;8.85;2.67;;;11.70;99.90;;;;;;5070830;28;20131;-79
2023/05/22 00:33:17;;;;;;;7.18;2.85;;;11.70;99.90;;;;;;5073734;28;20429;-79
2023/05/22 00:35:44;;;;;;;6.43;2.33;;;11.60;99.90;;;;;;5072813;28;20078;-79
2023/05/22 00:38:12;;;;;;;5.75;2.15;;;11.60;99.90;;;;;;5074790;28;20124;-79
2023/05/22 00:40:39;;;;;;;9.70;2.70;;;11.70;99.90;;;;;;5073924;28;20060;-79
2023/05/22 00:43:07;;;;;;;11.15;2.88;;;11.60;99.90;;;;;;5073828;28;20040;-79
2023/05/22 00:45:34;;;;;;;7.38;2.40;;;11.60;99.90;;;;;;5073650;28;20052;-78
2023/05/22 00:48:01;;;;;;;7.47;2.35;;;11.60;99.90;;;;;;5073653;28;20425;-81
2023/05/22 00:50:27;;;;;;;14.40;2.17;;;11.60;99.90;;;;;;5056178;28;20062;-80
2023/05/22 00:52:54;;;;;;;5.45;2.10;;;11.50;99.90;;;;;;5074816;28;20036;-81
2023/05/22 00:55:21;;;;;;;6.63;2.53;;;11.50;99.90;;;;;;5073608;28;20078;-80
2023/05/22 00:57:48;;;;;;;10.18;2.58;;;11.40;99.90;;;;;;5074756;28;20470;-80
2023/05/22 01:00:15;;;;;;;11.65;3.28;;;11.40;99.90;;;;;;5074809;28;20442;-78
2023/05/22 01:02:42;;;;;;;7.18;2.35;;;11.40;99.90;;;;;;5072436;28;20052;-80
2023/05/22 01:05:11;;;;;;;6.88;2.42;;;11.40;99.90;;;;;;5073368;28;20040;-80
2023/05/22 01:07:39;;;;;;;8.88;2.40;;;11.30;99.90;;;;;;5073673;28;20090;-81
2023/05/22 01:10:06;;;;;;;10.50;2.78;;;11.30;99.90;;;;;;5072703;28;20422;-81
2023/05/22 01:12:32;;;;;;;6.55;2.30;;;11.30;99.90;;;;;;5074760;28;20479;-80
2023/05/22 01:14:59;;;;;;;8.88;2.13;;;11.20;99.90;;;;;;5056540;28;20083;-80
2023/05/22 01:17:27;;;;;;;7.15;2.38;;;11.20;99.90;;;;;;5073425;28;20032;-80
2023/05/22 01:19:59;;;;;;;8.55;2.47;;;11.20;99.90;;;;;;5073547;28;20518;-80
2023/05/22 01:22:27;;;;;;;13.80;2.17;;;11.20;99.90;;;;;;5073573;28;20471;-80
2023/05/22 01:24:53;;;;;;;7.38;2.33;;;11.10;99.90;;;;;;5056458;28;20041;-80
2023/05/22 01:27:24;;;;;;;10.88;2.65;;;11.20;99.90;;;;;;5073509;28;20152;-81
2023/05/22 01:29:51;;;;;;;10.15;2.58;;;11.10;99.90;;;;;;5072491;28;20471;-80
2023/05/22 01:32:18;;;;;;;5.38;2.00;;;11.10;99.90;;;;;;5073355;28;20068;-80
2023/05/22 01:34:44;;;;;;;8.35;2.58;;;11.10;99.90;;;;;;5072990;28;20434;-80
2023/05/22 01:37:11;;;;;;;7.70;2.50;;;11.10;99.90;;;;;;5055738;28;20447;-80
2023/05/22 01:39:37;;;;;;;9.27;1.95;;;11.10;99.90;;;;;;5074381;28;20135;-80
2023/05/22 01:42:07;;;;;;;11.10;2.47;;;11.20;99.90;;;;;;5055911;28;20049;-80
2023/05/22 01:44:34;;;;;;;6.75;2.35;;;11.20;99.90;;;;;;5073625;28;20048;-80
2023/05/22 01:47:04;;;;;;;10.60;2.50;;;11.20;99.90;;;;;;5073803;28;20048;-81
2023/05/22 01:49:30;;;;;;;13.65;2.58;;;11.20;99.90;;;;;;5072543;28;20040;-81
2023/05/22 01:51:57;;;;;;;6.55;2.28;;;11.20;99.90;;;;;;5074011;28;20044;-81
2023/05/22 01:54:24;;;;;;;10.70;2.63;;;11.20;99.90;;;;;;5073237;28;20044;-80
2023/05/22 01:56:50;;;;;;;10.85;2.78;;;11.30;99.90;;;;;;5071497;28;20135;-80
2023/05/22 01:59:18;;;;;;;10.85;3.13;;;11.20;99.90;;;;;;5056636;28;20441;-81
2023/05/22 02:01:45;;;;;;;7.35;2.25;;;11.20;99.90;;;;;;5075768;28;20118;-81
2023/05/22 02:04:11;;;;;;;10.73;2.33;;;11.30;99.90;;;;;;5077044;28;20063;-80
2023/05/22 02:06:38;;;;;;;6.80;2.38;;;11.30;99.90;;;;;;5076214;28;20143;-80
2023/05/22 02:09:05;;;;;;;7.57;2.22;;;11.30;99.90;;;;;;5076044;28;20378;-81
2023/05/22 02:11:31;;;;;;;8.15;1.90;;;11.40;99.90;;;;;;5076644;28;20055;-80
2023/05/22 02:13:58;;;;;;;10.10;2.67;;;11.40;99.90;;;;;;5060287;28;20048;-80
2023/05/22 02:16:29;;;;;;;9.27;2.50;;;11.40;99.90;;;;;;5075466;28;20045;-80
2023/05/22 02:18:55;;;;;;;8.30;2.22;;;11.40;99.90;;;;;;5076891;28;20048;-81
2023/05/22 02:21:22;;;;;;;6.13;2.35;;;11.40;99.90;;;;;;5076666;28;20051;-81
2023/05/22 02:23:49;;;;;;;7.35;2.08;;;11.40;99.90;;;;;;5075277;28;20463;-80
2023/05/22 02:26:16;;;;;;;6.75;2.53;;;11.50;99.90;;;;;;5076311;28;20075;-80
2023/05/22 02:28:43;;;;;;;7.68;2.45;;;11.50;99.90;;;;;;5075698;28;20056;-81
2023/05/22 02:31:10;;;;;;;8.30;2.70;;;11.50;99.90;;;;;;5076552;28;20051;-80
2023/05/22 02:33:39;;;;;;;8.18;2.40;;;11.60;99.90;;;;;;5060351;28;20063;-80
2023/05/22 02:36:09;;;;;;;8.32;2.85;;;11.60;99.90;;;;;;5074928;28;20044;-80
2023/05/22 02:38:36;;;;;;;8.27;2.55;;;11.60;99.90;;;;;;5076486;28;20045;-80
2023/05/22 02:41:03;;;;;;;7.65;2.83;;;11.60;99.90;;;;;;5076253;28;20059;-80
2023/05/22 02:43:31;;;;;;;6.95;2.60;;;11.60;99.90;;;;;;5075194;28;20527;-80
2023/05/22 02:45:57;;;;;;;9.93;2.40;;;11.60;99.90;;;;;;5059313;28;20040;-80
2023/05/22 02:48:28;;;;;;;8.95;2.85;;;11.70;99.90;;;;;;5059792;28;20135;-80
2023/05/22 02:50:54;;;;;;;11.98;2.70;;;11.70;99.90;;;;;;5074849;28;20353;-80
2023/05/22 02:53:21;;;;;;;6.80;2.38;;;11.80;99.90;;;;;;5059446;28;20036;-80
2023/05/22 02:55:48;;;;;;;9.75;2.80;;;11.80;99.90;;;;;;5074534;28;20108;-81
2023/05/22 02:58:16;;;;;;;9.43;2.67;;;11.80;99.90;;;;;;5058959;28;20455;-80
2023/05/22 03:00:44;;;;;;;14.65;2.85;;;11.80;99.90;;;;;;5075945;28;20067;-80
2023/05/22 03:03:10;;;;;;;9.02;2.65;;;11.80;99.90;;;;;;5074894;28;20556;-80
2023/05/22 03:05:38;;;;;;;9.50;3.10;;;11.80;99.90;;;;;;5075491;28;20113;-80
2023/05/22 03:08:06;;;;;;;11.73;2.85;;;11.90;99.90;;;;;;5075828;28;20044;-80
2023/05/22 03:10:33;;;;;;;9.30;2.72;;;11.80;99.90;;;;;;5075698;28;20037;-80
2023/05/22 03:13:00;;;;;;;10.27;3.03;;;11.90;99.90;;;;;;5075652;28;20513;-80
2023/05/22 03:15:27;;;;;;;10.77;3.22;;;11.90;99.90;;;;;;5074411;28;20055;-80
2023/05/22 03:17:59;;;;;;;13.00;3.53;;;11.90;99.90;;;;;;5059646;28;20386;-80
2023/05/22 03:20:25;;;;;;;11.63;3.03;;;11.90;99.90;;;;;;5075862;28;20052;-81
2023/05/22 03:22:52;;;;;;;8.75;2.97;;;11.90;99.90;;;;;;5057937;28;20040;-80
2023/05/22 03:25:20;;;;;;;8.50;3.17;;;11.90;99.90;;;;;;5058772;28;20062;-80
2023/05/22 03:27:47;;;;;;;8.63;2.97;;;11.90;99.90;;;;;;5075404;28;20041;-80
2023/05/22 03:30:14;;;;;;;10.45;3.63;;;11.90;99.90;;;;;;5074366;28;20513;-80
2023/05/22 03:32:48;;;;;;;9.88;3.55;;;11.90;99.90;;;;;;5059874;28;20482;-80
2023/05/22 03:35:18;;;;;;;12.75;3.53;;;11.90;99.90;;;;;;5058367;28;20040;-80
2023/05/22 03:37:45;;;;;;;10.07;3.35;;;12.00;99.90;;;;;;5074171;28;20044;-80
2023/05/22 03:40:12;;;;;;;9.95;3.25;;;11.90;99.90;;;;;;5055953;28;20040;-80
2023/05/22 03:42:39;;;;;;;17.98;3.78;;;11.90;99.90;;;;;;5037689;28;20064;-80
2023/05/22 03:45:06;;;;;;;8.05;3.05;;;11.90;99.90;;;;;;5037972;28;20071;-81
2023/05/22 03:47:33;;;;;;;12.70;3.67;;;11.90;99.90;;;;;;5037984;28;20049;-80
2023/05/22 03:50:01;;;;;;;9.55;3.28;;;11.90;99.90;;;;;;5037335;28;20041;-80
2023/05/22 03:52:28;;;;;;;9.40;3.28;;;11.90;99.90;;;;;;5038399;28;20047;-80
2023/05/22 03:54:54;;;;;;;10.27;3.38;;;11.80;99.90;;;;;;5037948;28;20094;-80
2023/05/22 03:57:21;;;;;;;8.63;3.50;;;11.80;99.90;;;;;;5054766;28;20036;-81
2023/05/22 03:59:48;;;;;;;10.82;3.15;;;11.90;99.90;;;;;;5038077;28;20426;-80
2023/05/22 04:02:16;;;;;;;9.70;2.95;;;11.90;99.90;;;;;;5037040;28;20041;-80
2023/05/22 04:04:44;;;;;;;11.38;3.65;;;11.90;99.90;;;;;;5055273;28;20044;-80
2023/05/22 04:07:12;;;;;;;9.27;3.15;;;11.90;99.90;;;;;;5055643;28;20098;-80
2023/05/22 04:09:39;;;;;;;8.07;2.67;;;11.90;99.90;;;;;;5054612;28;20052;-80
2023/05/22 04:12:05;;;;;;;8.73;2.88;;;11.90;99.90;;;;;;5055384;28;20175;-80
2023/05/22 04:14:32;;;;;;;8.07;3.10;;;11.80;99.90;;;;;;5037540;28;20044;-80
2023/05/22 04:16:59;;;;;;;12.82;3.42;;;11.80;99.90;;;;;;5036782;28;20128;-81
2023/05/22 04:19:28;;;;;;;12.32;2.97;;;11.80;99.90;;;;;;5055426;28;20523;-80
2023/05/22 04:21:55;;;;;;;12.60;3.30;;;11.70;99.90;;;;;;5037890;28;20075;-80
2023/05/22 04:24:22;;;;;;;11.20;3.00;;;11.70;99.90;;;;;;5036411;28;20045;-80
2023/05/22 04:26:49;;;;;;;12.00;3.47;;;11.70;99.90;;;;;;5037355;28;20135;-80
2023/05/22 04:29:15;;;;;;;7.60;3.50;;;11.70;99.90;;;;;;5036645;28;20069;-80
2023/05/22 04:31:43;;;;;;;8.35;2.90;;;11.80;99.90;;;;;;5037615;28;20474;-80
2023/05/22 04:34:11;;;;;;;10.40;3.00;;;11.70;99.90;;;;;;5037939;28;20044;-80
2023/05/22 04:36:38;;;;;;;8.60;2.97;;;11.70;99.90;;;;;;5035544;28;20095;-80
2023/05/22 04:39:05;;;;;;;11.60;2.63;;;11.70;99.90;;;;;;5054990;28;20045;-80
2023/05/22 04:41:33;;;;;;;7.78;2.80;;;11.70;99.90;;;;;;5054735;28;20139;-80
2023/05/22 04:44:02;;;;;;;10.50;3.83;;;11.70;99.90;;;;;;5036575;28;20048;-80
2023/05/22 04:46:29;;;;;;;9.23;3.20;;;11.70;99.90;;;;;;5054629;28;20127;-80
2023/05/22 04:49:00;;;;;;;11.73;3.42;;;11.80;99.90;;;;;;5036251;28;20041;-80
2023/05/22 04:51:28;;;;;;;7.05;2.88;;;11.80;99.90;;;;;;5037084;28;20419;-80
2023/05/22 04:53:57;;;;;;;9.00;2.97;;;11.80;99.90;;;;;;5037337;28;20123;-80
2023/05/22 04:56:24;;;;;;;7.03;2.50;;;11.90;99.90;;;;;;5035842;28;20072;-80
2023/05/22 04:59:04;;;;;;;8.95;3.20;;;11.90;99.90;;;;;;5037279;28;20494;-81
2023/05/22 05:01:33;;;;;;;10.65;2.88;;;12.00;99.90;;;;;;5037061;28;20045;-80
2023/05/22 05:04:01;;;;;;;12.63;3.95;;;12.00;99.90;;;;;;5036015;28;20194;-80
2023/05/22 05:06:28;;;;;;;11.90;3.35;;;12.00;99.90;;;;;;5036331;28;20136;-80
2023/05/22 05:08:55;;;;;;;8.27;2.80;;;12.10;99.90;;;;;;5035856;28;20418;-79
2023/05/22 05:11:23;;;;;;;9.52;3.20;;;12.10;99.90;;;;;;5020499;28;20513;-81
2023/05/22 05:13:50;;;;;;;10.20;4.10;;;12.10;99.90;;;;;;5036860;28;20486;-80
2023/05/22 05:16:17;;;;;;;11.43;3.92;;;12.20;99.90;;;;;;5036101;28;20436;-85
2023/05/22 05:18:44;;;;;;;11.48;3.72;;;12.20;99.90;;;;;;5054511;28;20066;-80
2023/05/22 05:21:11;;;;;;;10.30;3.75;;;12.20;99.90;;;;;;5020468;28;20069;-80
2023/05/22 05:23:37;;;;;;;8.88;3.60;;;12.30;99.90;;;;;;5036140;28;20045;-80
2023/05/22 05:26:06;;;;;;;13.00;3.97;;;12.30;99.90;;;;;;5036392;28;20048;-80
2023/05/22 05:28:32;;;;;;;13.75;3.95;;;12.40;99.90;;;;;;5036464;28;20056;-80
2023/05/22 05:31:00;;;;;;;8.57;3.53;;;12.50;99.90;;;;;;5035602;28;20040;-80
2023/05/22 05:33:47;;;;;;;12.77;4.03;;;12.50;99.90;;;;;;5037328;28;20044;-81
2023/05/22 05:36:26;;;;;;;11.77;3.45;;;12.50;99.90;;;;;;5037476;28;20072;-81
2023/05/22 05:38:53;;;;;;;12.60;3.97;;;12.50;99.90;;;;;;5040987;28;20099;-81
2023/05/22 05:41:20;;;;;;;11.15;3.70;;;12.60;99.90;;;;;;5040832;28;20053;-81
2023/05/22 05:43:56;;;;;;;9.25;3.55;;;12.60;99.90;;;;;;5039740;28;20041;-81
2023/05/22 05:46:24;;;;;;;13.20;3.90;;;12.60;99.90;;;;;;5039896;28;20079;-81
2023/05/22 05:48:51;;;;;;;8.43;3.53;;;12.60;99.90;;;;;;5039497;28;20040;-81
2023/05/22 05:51:20;;;;;;;10.18;4.10;;;12.70;99.90;;;;;;5040485;28;20386;-81
2023/05/22 05:53:46;;;;;;;12.48;4.18;;;12.80;99.90;;;;;;5040596;28;20099;-81
2023/05/22 05:56:14;;;;;;;9.30;3.92;;;12.80;99.90;;;;;;5039018;28;20041;-81
2023/05/22 05:58:41;;;;;;;12.90;4.00;;;12.90;99.90;;;;;;5024343;28;20037;-81
2023/05/22 06:01:26;;;;;;;11.82;4.00;;;12.90;99.90;;;;;;5032187;28;20071;-81
2023/05/22 06:03:54;;;;;;;9.02;3.28;;;12.90;99.90;;;;;;5003599;28;20053;-81
2023/05/22 06:06:34;;;;;;;11.35;3.92;;;13.00;99.90;;;;;;5020231;28;20045;-81
2023/05/22 06:09:08;;;;;;;14.73;3.63;;;13.00;99.90;;;;;;5037038;28;20388;-80
2023/05/22 06:11:55;;;;;;;9.27;3.35;;;13.00;99.90;;;;;;5023281;28;20041;-81
2023/05/22 06:14:23;;;;;;;12.30;3.58;;;13.10;99.90;;;;;;5019940;28;20137;-80
2023/05/22 06:16:49;;;;;;;11.02;4.20;;;13.00;99.90;;;;;;5018866;28;20065;-81
2023/05/22 06:19:17;;;;;;;13.00;4.03;;;13.00;99.90;;;;;;5020701;28;20399;-81
2023/05/22 06:21:44;;;;;;;10.15;3.20;;;13.10;99.90;;;;;;5023900;28;20072;-81
2023/05/22 06:24:10;;;;;;;11.82;3.70;;;13.20;99.90;;;;;;5019159;28;20072;-81
2023/05/22 06:26:38;;;;;;;11.00;3.30;;;13.20;99.90;;;;;;5019909;28;20128;-81
2023/05/22 06:29:05;;;;;;;12.25;3.92;;;13.30;99.90;;;;;;5019094;28;20045;-81
2023/05/22 06:31:36;;;;;;;9.85;3.60;;;13.30;99.90;;;;;;5020210;28;20454;-82
2023/05/22 06:34:04;;;;;;;10.05;3.65;;;13.40;99.90;;;;;;5020111;28;20045;-81
2023/05/22 06:36:33;;;;;;;15.45;3.88;;;13.40;99.90;;;;;;5018388;28;20076;-80
2023/05/22 06:39:00;;;;;;;10.30;3.85;;;13.50;99.90;;;;;;5020046;28;20469;-81
2023/05/22 06:41:49;;;;;;;10.20;3.75;;;13.50;99.90;;;;;;5034705;28;20420;-81
2023/05/22 06:44:16;;;;;;;11.48;3.65;;;13.60;99.90;;;;;;5011896;28;20053;-82
2023/05/22 06:46:43;;;;;;;14.02;3.70;;;13.70;99.90;;;;;;5003050;28;20100;-81
2023/05/22 06:49:16;;;;;;;10.68;3.53;;;13.60;99.90;;;;;;5024438;28;20453;-81
2023/05/22 06:51:46;;;;;;;9.98;4.22;;;13.70;99.90;;;;;;5024647;28;20042;-87
2023/05/22 06:54:15;;;;;;;9.07;3.70;;;13.80;99.90;;;;;;5026066;28;20498;-82
2023/05/22 06:56:45;;;;;;;12.43;3.97;;;13.70;99.90;;;;;;5040034;28;20072;-82
2023/05/22 06:59:16;;;;;;;13.55;3.53;;;13.80;99.90;;;;;;5039395;28;20045;-82
2023/05/22 07:02:01;;;;;;;10.90;3.40;;;13.70;99.90;;;;;;5041844;28;20044;-82
2023/05/22 07:04:48;;;;;;;9.10;3.85;;;13.70;99.90;;;;;;5054958;28;20057;-82
2023/05/22 07:07:20;;;;;;;;;;;13.80;99.90;;;;;;5033635;28;20052;-82
2023/05/22 07:09:46;;;;;;;9.13;3.55;;;13.80;99.90;;;;;;5002025;28;19975;-82
2023/05/22 07:12:14;;;;;;;11.55;3.58;;;13.90;99.90;;;;;;5022935;28;20123;-82
2023/05/22 07:14:41;;;;;;;11.73;3.25;;;13.90;99.90;;;;;;5038733;28;20095;-82
2023/05/22 07:17:08;;;;;;;13.15;4.03;;;14.00;99.90;;;;;;5038359;28;20506;-83
2023/05/22 07:19:39;;;;;;;;;;;14.10;99.90;;;;;;5039425;28;20064;-82
2023/05/22 07:22:07;;;;;;;11.85;4.28;;;14.10;99.90;;;;;;5037561;28;19921;-81
2023/05/22 07:24:36;;;;;;;10.60;3.80;;;14.10;99.90;;;;;;5038320;28;20132;-82
2023/05/22 07:27:04;;;;;;;10.75;3.75;;;14.20;99.90;;;;;;5038642;28;20044;-82
2023/05/22 07:29:32;;;;;;;11.00;3.72;;;14.30;99.90;;;;;;5037704;28;20049;-82
2023/05/22 07:32:00;;;;;;;10.82;3.97;;;14.50;99.90;;;;;;5038762;28;20080;-81
2023/05/22 07:34:31;;;;;;;10.07;3.88;;;14.60;99.90;;;;;;5038381;28;20079;-83
2023/05/22 07:37:00;;;;;;;9.35;3.58;;;14.70;99.90;;;;;;5035175;28;20049;-81
2023/05/22 07:39:27;;;;;;;12.98;3.90;;;14.70;99.90;;;;;;5022278;28;20041;-81
2023/05/22 07:41:55;;;;;;;12.35;4.47;;;14.80;99.90;;;;;;5052052;28;20052;-81
2023/05/22 07:44:25;;;;;;;11.63;4.03;;;14.90;99.90;;;;;;5073619;28;20071;-81
2023/05/22 07:46:53;;;;;;;11.35;3.90;;;15.10;99.90;;;;;;5058423;28;20091;-82
2023/05/22 07:49:22;;;;;;;14.63;3.92;;;15.30;99.90;;;;;;5074206;28;20056;-80
2023/05/22 07:51:49;;;;;;;12.30;4.28;;;15.40;99.90;;;;;;5059064;28;20033;-83
2023/05/22 07:54:18;;;;;;;11.63;4.15;;;15.40;99.90;;;;;;5041320;28;20140;-83
2023/05/22 07:56:50;;;;;;;10.90;4.05;;;15.40;99.90;;;;;;5037324;28;20056;-80
2023/05/22 07:59:19;;;;;;;11.48;3.88;;;15.50;99.90;;;;;;5054754;28;20102;-80
2023/05/22 08:01:46;;;;;;;9.30;4.38;;;15.80;99.90;;;;;;5055121;28;20087;-80
2023/05/22 08:04:13;;;;;;;10.05;4.15;;;16.00;99.90;;;;;;5054190;28;20041;-81
2023/05/22 08:06:42;;;;;;;12.60;3.92;;;16.00;99.90;;;;;;5055950;28;20037;-80
2023/05/22 08:09:09;;;;;;;7.57;3.50;;;16.00;99.90;;;;;;5054332;28;20044;-78
2023/05/22 08:11:38;;;;;;;16.13;3.78;;;16.10;99.90;;;;;;5064006;28;20037;-84
2023/05/22 08:14:06;;;;;;;11.93;4.03;;;16.40;99.90;;;;;;5066926;28;20033;-78
2023/05/22 08:16:33;;;;;;;9.55;3.83;;;16.60;99.90;;;;;;5054824;28;20057;-79
2023/05/22 08:19:00;;;;;;;9.70;3.70;;;16.50;99.90;;;;;;5051663;28;20383;-80
2023/05/22 08:21:27;;;;;;;9.70;3.85;;;16.40;99.90;;;;;;5061867;28;20116;-77
2023/05/22 08:23:54;;;;;;;11.98;3.88;;;16.40;99.90;;;;;;5055464;28;20099;-78
2023/05/22 08:26:24;;;;;;;10.70;3.20;;;16.20;99.90;;;;;;5048635;28;20091;-80
2023/05/22 08:28:51;;;;;;;8.40;3.78;;;16.10;99.90;;;;;;5057040;28;20424;-81
2023/05/22 08:31:18;;;;;;;13.75;3.45;;;16.00;99.90;;;;;;5066076;28;20037;-80
2023/05/22 08:33:45;;;;;;;12.13;4.18;;;16.00;99.90;;;;;;5063601;28;20045;-82
2023/05/22 08:38:58;;;;;;;11.45;3.53;;;16.00;99.90;;;;;;5054781;28;20037;-80
2023/05/22 08:41:25;;;;;;;8.57;3.40;;;16.10;99.90;;;;;;5054138;28;20371;-79
2023/05/22 08:43:51;;;;;;;12.65;3.75;;;16.40;99.90;;;;;;5053598;28;20143;-81
2023/05/22 08:46:19;;;;;;;10.13;3.53;;;16.60;99.90;;;;;;5038555;28;20468;-83
2023/05/22 08:48:46;;;;;;;10.82;3.60;;;16.70;99.90;;;;;;5065885;28;20044;-79
2023/05/22 08:51:13;;;;;;;11.32;4.47;;;16.60;99.90;;;;;;5062633;28;20045;-79
2023/05/22 08:53:40;;;;;;;8.10;3.40;;;16.60;99.90;;;;;;5053858;28;20372;-82
2023/05/22 08:58:55;;;;;;;11.60;3.50;;;16.60;99.90;;;;;;5053646;28;20053;-80
2023/05/22 09:01:21;;;;;;;13.00;3.47;;;16.50;99.90;;;;;;5056054;28;20425;-82
2023/05/22 09:03:50;;;;;;;14.38;3.78;;;16.50;99.90;;;;;;5054727;28;20420;-82
2023/05/22 09:06:19;;;;;;;8.30;3.28;;;16.30;99.90;;;;;;5037504;28;20037;-79
2023/05/22 09:08:45;;;;;;;10.02;3.35;;;16.10;99.90;;;;;;5069358;28;20106;-80
2023/05/22 09:11:14;;;;;;;9.18;3.28;;;15.90;99.90;;;;;;5073470;28;20110;-80
2023/05/22 09:13:41;;;;;;;8.40;3.25;;;15.90;99.90;;;;;;5066300;28;20037;-85
2023/05/22 09:16:08;;;;;;;9.05;3.45;;;15.80;99.90;;;;;;5071592;28;20064;-84
2023/05/22 09:18:36;;;;;;;12.05;3.60;;;15.90;99.90;;;;;;5060282;28;20033;-84
2023/05/22 09:21:02;;;;;;;6.57;3.20;;;15.90;99.90;;;;;;5053891;28;20442;-81
2023/05/22 09:23:40;;;;;;;13.73;2.92;;;16.00;99.90;;;;;;5054217;28;20049;-79
2023/05/22 09:29:12;;;;;;;9.77;3.45;;;16.20;99.90;;;;;;5069790;28;20044;-78
2023/05/22 09:31:39;;;;;;;8.63;3.17;;;16.10;99.90;;;;;;5054292;28;20127;-78
2023/05/22 09:34:06;;;;;;;8.20;2.92;;;16.20;99.90;;;;;;5070465;28;20033;-85
2023/05/22 09:39:19;;;;;;;11.40;3.13;;;16.30;99.90;;;;;;5085053;28;20041;-86
2023/05/22 09:41:46;;;;;;;8.93;3.47;;;16.30;99.90;;;;;;5053363;28;20089;-87
2023/05/22 09:44:13;;;;;;;10.05;3.53;;;16.40;99.90;;;;;;5052640;28;20099;-79
2023/05/22 09:46:41;;;;;;;8.85;3.40;;;16.50;99.90;;;;;;5065596;28;20044;-81
2023/05/22 09:49:08;;;;;;;8.93;3.50;;;16.40;99.90;;;;;;5067036;28;20045;-80
2023/05/22 09:51:35;;;;;;;11.90;3.35;;;16.30;99.90;;;;;;5073084;28;20044;-78
2023/05/22 09:54:02;;;;;;;8.50;3.28;;;16.30;99.90;;;;;;5072418;28;20041;-81
2023/05/22 09:56:30;;;;;;;10.18;3.15;;;16.30;99.90;;;;;;5055939;28;20378;-80
2023/05/22 09:59:06;;;;;;;9.90;3.50;;;16.30;99.90;;;;;;5073615;28;20449;-80
2023/05/22 10:01:32;;;;;;;12.52;3.05;;;16.40;99.90;;;;;;5066311;28;20041;-81
2023/05/22 10:03:59;;;;;;;9.88;3.35;;;16.40;99.90;;;;;;5053082;28;20369;-80
2023/05/22 10:06:27;;;;;;;11.30;3.30;;;16.20;99.90;;;;;;5055235;28;20473;-79
2023/05/22 10:08:54;;;;;;;11.60;3.50;;;16.00;99.90;;;;;;5093054;28;20040;-79
2023/05/22 10:11:21;;;;;;;11.30;3.28;;;15.80;99.90;;;;;;5073025;28;20572;-79
2023/05/22 10:13:48;;;;;;;16.98;4.38;;;15.60;99.90;;;;;;5056078;28;20551;-81
2023/05/22 10:16:15;;;;;;;8.60;3.30;;;15.50;99.90;;;;;;5072675;28;20534;-81
2023/05/22 10:18:42;;;;;;;9.45;3.38;;;15.50;99.90;;;;;;5074070;28;20068;-84
2023/05/22 10:21:09;;;;;;;9.95;3.33;;;15.60;99.90;;;;;;5056840;28;20095;-81
2023/05/22 10:23:35;;;;;;;9.30;2.85;;;15.50;99.90;;;;;;5059682;28;20045;-84
2023/05/22 10:26:02;;;;;;;11.27;3.80;;;15.50;99.90;;;;;;5060291;28;20098;-83
2023/05/22 10:28:29;;;;;;;8.23;3.38;;;15.50;99.90;;;;;;5060289;28;20055;-84
2023/05/22 10:30:56;;;;;;;8.70;2.70;;;15.70;99.90;;;;;;5075670;28;20114;-83
2023/05/22 10:33:48;;;;;;;8.95;3.10;;;15.90;99.90;;;;;;5057250;28;20476;-88
2023/05/22 10:36:20;;;;;;;11.18;3.15;;;16.10;99.90;;;;;;5070070;28;20148;-85
2023/05/22 10:38:47;;;;;;;10.32;2.72;;;16.20;99.90;;;;;;5056389;28;20135;-83
2023/05/22 10:41:13;;;;;;;8.95;3.40;;;16.20;99.90;;;;;;5040192;28;20049;-82
2023/05/22 10:43:43;;;;;;;9.32;3.22;;;16.30;99.90;;;;;;5056357;28;20044;-83
2023/05/22 10:48:40;;;;;;;11.45;3.60;;;16.80;99.90;;;;;;5056847;28;20052;-84
2023/05/22 10:51:07;;;;;;;9.85;3.40;;;16.80;99.90;;;;;;5066421;28;20076;-84
2023/05/22 10:53:34;;;;;;;8.50;2.95;;;16.90;99.90;;;;;;5076159;28;20049;-82
2023/05/22 10:56:01;;;;;;;8.00;3.40;;;17.10;99.90;;;;;;5075300;28;20127;-82
2023/05/22 10:58:28;;;;;;;10.00;3.60;;;17.50;99.90;;;;;;5076230;28;20099;-84
2023/05/22 11:00:55;;;;;;;11.07;3.55;;;17.90;99.90;;;;;;5059747;28;20064;-83
2023/05/22 11:03:22;;;;;;;9.15;3.58;;;18.30;99.90;;;;;;5075311;28;20068;-84
2023/05/22 11:05:49;;;;;;;10.02;3.47;;;18.90;99.90;;;;;;5076030;28;20378;-78
2023/05/22 11:08:15;;;;;;;10.50;3.28;;;19.30;99.90;;;;;;5076539;28;20102;-85
2023/05/22 11:10:44;;;;;;;8.90;3.47;;;19.20;99.90;;;;;;5075097;28;20045;-82
2023/05/22 11:13:11;;;;;;;12.82;3.70;;;18.90;99.90;;;;;;5063214;28;20033;-83
2023/05/22 11:15:38;;;;;;;8.32;3.30;;;18.80;99.90;;;;;;5072710;28;20033;-78
2023/05/22 11:18:06;;;;;;;8.45;3.15;;;18.70;99.90;;;;;;5057614;28;20063;-79
2023/05/22 11:20:33;;;;;;;8.60;3.35;;;18.50;99.90;;;;;;5077059;28;20473;-79
2023/05/22 11:22:59;;;;;;;7.78;3.05;;;18.40;99.90;;;;;;5076210;28;20048;-79
2023/05/22 11:25:26;;;;;;;11.63;3.40;;;18.30;99.90;;;;;;5075640;28;20123;-78
2023/05/22 11:27:53;;;;;;;8.70;2.83;;;18.10;99.90;;;;;;5075984;28;20076;-82
2023/05/22 11:30:19;;;;;;;11.23;3.08;;;18.20;99.90;;;;;;5057035;28;20049;-79
2023/05/22 11:32:46;;;;;;;9.70;2.90;;;18.40;99.90;;;;;;5074905;28;20047;-79
2023/05/22 11:35:13;;;;;;;10.18;3.20;;;18.50;99.90;;;;;;5074823;28;20123;-78
2023/05/22 11:37:41;;;;;;;12.75;3.25;;;18.80;99.90;;;;;;5074689;28;20111;-78
2023/05/22 11:40:07;;;;;;;9.18;3.35;;;18.80;99.90;;;;;;5073616;28;20047;-78
2023/05/22 11:42:34;;;;;;;10.93;3.50;;;18.90;99.90;;;;;;5054696;28;20121;-79
2023/05/22 11:45:01;;;;;;;9.75;3.08;;;19.00;99.90;;;;;;5054834;28;20468;-80
2023/05/22 11:47:28;;;;;;;7.68;2.97;;;19.00;99.90;;;;;;5055378;28;20127;-79
2023/05/22 11:49:54;;;;;;;9.50;3.10;;;18.90;99.90;;;;;;5053986;28;20468;-77
2023/05/22 11:52:21;;;;;;;10.43;3.03;;;18.90;99.90;;;;;;5038203;28;20463;-79
2023/05/22 11:54:48;;;;;;;8.48;2.90;;;18.70;99.90;;;;;;5055160;28;20513;-78
2023/05/22 11:57:14;;;;;;;8.50;3.08;;;18.50;99.90;;;;;;5054638;28;20459;-79
2023/05/22 11:59:41;;;;;;;11.30;3.15;;;18.60;99.90;;;;;;5055846;28;20040;-78
2023/05/22 12:02:08;;;;;;;10.07;3.30;;;18.60;99.90;;;;;;5036747;28;20045;-79
2023/05/22 12:04:34;;;;;;;14.70;3.22;;;18.30;99.90;;;;;;5037482;28;20040;-78
2023/05/22 12:07:02;;;;;;;9.15;3.25;;;18.00;99.90;;;;;;5054668;28;20044;-78
2023/05/22 12:09:29;;;;;;;9.15;3.50;;;17.90;99.90;;;;;;5054249;28;20051;-78
2023/05/22 12:11:56;;;;;;;6.95;3.10;;;17.90;99.90;;;;;;5038244;28;20040;-78
2023/05/22 12:14:23;;;;;;;7.68;3.00;;;17.60;99.90;;;;;;5054792;28;20439;-77
2023/05/22 12:16:50;;;;;;;9.60;3.35;;;17.70;99.90;;;;;;5036642;28;20041;-78
2023/05/22 12:19:17;;;;;;;10.75;3.63;;;17.60;99.90;;;;;;5055052;28;20379;-79
2023/05/22 12:21:44;;;;;;;9.50;3.47;;;17.70;99.90;;;;;;5055018;28;20045;-78
2023/05/22 12:24:10;;;;;;;8.93;2.92;;;17.60;99.90;;;;;;5053490;28;20075;-77
2023/05/22 12:26:37;;;;;;;10.95;3.42;;;17.50;99.90;;;;;;5055003;28;20069;-78
2023/05/22 12:29:04;;;;;;;9.02;3.30;;;17.50;99.90;;;;;;5053882;28;20421;-79
2023/05/22 12:31:30;;;;;;;10.05;3.35;;;17.50;99.90;;;;;;5054686;28;20055;-78
2023/05/22 12:33:57;;;;;;;11.73;3.00;;;17.50;99.90;;;;;;5054562;28;20053;-79
2023/05/22 12:36:24;;;;;;;8.52;2.83;;;17.50;99.90;;;;;;5036186;28;20455;-80
2023/05/22 12:38:50;;;;;;;6.80;3.20;;;17.50;99.90;;;;;;5054812;28;20117;-80
2023/05/22 12:41:17;;;;;;;10.35;3.15;;;17.60;99.90;;;;;;5056962;28;20097;-79
2023/05/22 12:43:44;;;;;;;9.27;3.45;;;17.60;99.90;;;;;;5073327;28;20050;-77
2023/05/22 12:46:10;;;;;;;8.18;3.13;;;17.60;99.90;;;;;;5056870;28;20052;-77
2023/05/22 12:48:37;;;;;;;7.85;3.00;;;17.60;99.90;;;;;;5073545;28;20044;-79
2023/05/22 12:51:04;;;;;;;10.13;3.28;;;17.70;99.90;;;;;;5072424;28;20052;-78
2023/05/22 12:53:30;;;;;;;9.65;3.45;;;17.60;99.90;;;;;;5074512;28;20076;-78
2023/05/22 12:55:57;;;;;;;8.25;3.45;;;17.60;99.90;;;;;;5072833;28;20047;-78
2023/05/22 12:58:24;;;;;;;9.77;3.15;;;17.50;99.90;;;;;;5073086;28;20041;-77
2023/05/22 13:00:50;;;;;;;8.55;2.42;;;17.40;99.90;;;;;;5074398;28;20041;-78